createdAt,value
2023-04-21T00:01:50.022Z,59.09
2023-04-21T00:04:18.148Z,58.68
2023-04-21T00:06:45.787Z,59.71
2023-04-21T00:09:12.713Z,60.72
2023-04-21T00:11:39.663Z,59.59
2023-04-21T00:14:06.552Z,59.24
2023-04-21T00:16:33.492Z,55.38
2023-04-21T00:19:00.613Z,55.11
2023-04-21T00:21:27.501Z,56.45
2023-04-21T00:23:54.358Z,57.30
2023-04-21T00:26:21.261Z,56.36
2023-04-21T00:28:48.297Z,51.96
2023-04-21T00:31:15.162Z,51.82
2023-04-21T00:33:42.061Z,52.27
2023-04-21T00:36:08.967Z,50.86
2023-04-21T00:38:35.824Z,49.25
2023-04-21T00:41:02.782Z,49.10
2023-04-21T00:43:29.646Z,47.07
2023-04-21T00:45:56.490Z,46.28
2023-04-21T00:48:23.356Z,45.33
2023-04-21T00:50:50.276Z,43.57
2023-04-21T00:53:17.424Z,43.55
2023-04-21T00:55:44.264Z,43.38
2023-04-21T00:58:11.150Z,43.07
2023-04-21T01:00:39.627Z,41.97
2023-04-21T01:03:08.272Z,42.10
2023-04-21T01:05:35.865Z,42.04
2023-04-21T01:08:02.990Z,42.74
2023-04-21T01:10:30.189Z,46.29
2023-04-21T01:12:57.108Z,47.97
2023-04-21T01:15:24.011Z,47.21
2023-04-21T01:17:54.345Z,48.27
2023-04-21T01:20:21.290Z,47.86
2023-04-21T01:22:50.003Z,46.77
2023-04-21T01:25:17.767Z,46.01
2023-04-21T01:27:44.720Z,49.93
2023-04-21T01:30:11.786Z,51.38
2023-04-21T01:32:38.764Z,51.18
2023-04-21T01:35:06.754Z,48.10
2023-04-21T01:37:34.121Z,47.18
2023-04-21T01:40:04.913Z,47.06
2023-04-21T01:42:34.643Z,46.10
2023-04-21T01:45:01.558Z,45.89
2023-04-21T01:47:28.486Z,46.20
2023-04-21T01:49:55.638Z,46.70
2023-04-21T01:52:22.502Z,46.59
2023-04-21T01:54:49.429Z,48.31
2023-04-21T01:57:17.109Z,48.55
2023-04-21T01:59:44.445Z,48.55
2023-04-21T02:02:11.410Z,49.01
2023-04-21T02:04:38.512Z,48.63
2023-04-21T02:07:05.516Z,49.17
2023-04-21T02:09:32.565Z,49.74
2023-04-21T02:12:00.512Z,49.80
2023-04-21T02:14:27.817Z,49.73
2023-04-21T02:16:56.391Z,49.38
2023-04-21T02:19:23.687Z,50.15
2023-04-21T02:21:50.642Z,50.74
2023-04-21T02:24:17.815Z,49.48
2023-04-21T02:26:44.669Z,49.51
2023-04-21T02:29:11.526Z,48.58
2023-04-21T02:31:53.772Z,48.35
2023-04-21T02:34:25.344Z,48.16
2023-04-21T02:36:52.299Z,49.51
2023-04-21T02:39:19.466Z,50.84
2023-04-21T02:41:46.489Z,50.10
2023-04-21T02:44:13.338Z,49.24
2023-04-21T02:46:41.894Z,50.36
2023-04-21T02:49:09.620Z,50.78
2023-04-21T02:51:36.680Z,53.20
2023-04-21T02:54:03.724Z,51.66
2023-04-21T02:56:31.869Z,51.86
2023-04-21T02:58:58.807Z,51.86
2023-04-21T03:01:25.910Z,51.67
2023-04-21T03:03:52.865Z,51.96
2023-04-21T03:06:19.740Z,50.49
2023-04-21T03:08:46.701Z,51.46
2023-04-21T03:11:13.620Z,51.22
2023-04-21T03:13:40.715Z,49.07
2023-04-21T03:16:07.753Z,50.10
2023-04-21T03:18:37.444Z,49.40
2023-04-21T03:21:04.330Z,49.80
2023-04-21T03:23:31.208Z,50.46
2023-04-21T03:25:58.065Z,51.10
2023-04-21T03:28:24.946Z,49.65
2023-04-21T03:30:51.959Z,50.17
2023-04-21T03:33:18.898Z,51.22
2023-04-21T03:35:45.741Z,51.67
2023-04-21T03:38:12.626Z,50.79
2023-04-21T03:40:39.433Z,50.17
2023-04-21T03:43:06.309Z,51.01
2023-04-21T03:45:35.718Z,51.13
2023-04-21T03:48:02.754Z,50.97
2023-04-21T03:50:29.883Z,50.40
2023-04-21T03:52:57.373Z,50.71
2023-04-21T03:55:24.279Z,51.62
2023-04-21T03:57:51.142Z,52.46
2023-04-21T04:00:18.150Z,52.39
2023-04-21T04:02:45.138Z,51.18
2023-04-21T04:05:12.134Z,50.50
2023-04-21T04:07:40.047Z,50.58
2023-04-21T04:10:07.007Z,51.51
2023-04-21T04:12:33.922Z,53.05
2023-04-21T04:15:01.419Z,53.82
2023-04-21T04:17:28.353Z,53.53
2023-04-21T04:19:55.231Z,52.32
2023-04-21T04:22:22.065Z,49.72
2023-04-21T04:24:48.924Z,47.99
2023-04-21T04:27:15.797Z,48.10
2023-04-21T04:29:44.143Z,47.97
2023-04-21T04:32:11.557Z,47.43
2023-04-21T04:34:38.601Z,46.85
2023-04-21T04:37:06.904Z,45.33
2023-04-21T04:39:33.929Z,43.96
2023-04-21T04:42:01.584Z,44.76
2023-04-21T04:44:28.560Z,44.92
2023-04-21T04:46:55.975Z,45.40
2023-04-21T04:49:24.194Z,45.61
2023-04-21T04:51:51.270Z,45.43
2023-04-21T04:54:18.376Z,44.01
2023-04-21T04:56:45.564Z,45.23
2023-04-21T04:59:12.583Z,45.56
2023-04-21T05:01:40.846Z,45.33
2023-04-21T05:04:08.067Z,43.12
2023-04-21T05:06:35.195Z,41.67
2023-04-21T05:09:02.152Z,39.89
2023-04-21T05:11:29.053Z,37.75
2023-04-21T05:13:55.925Z,35.65
2023-04-21T05:16:22.905Z,33.88
2023-04-21T05:18:54.274Z,32.02
2023-04-21T05:21:27.828Z,30.04
2023-04-21T05:23:56.533Z,29.04
2023-04-21T05:26:24.507Z,29.04
2023-04-21T05:28:51.414Z,27.36
2023-04-21T05:31:18.270Z,27.25
2023-04-21T05:33:45.216Z,28.29
2023-04-21T05:36:12.408Z,27.37
2023-04-21T05:38:39.737Z,27.51
2023-04-21T05:41:06.797Z,28.54
2023-04-21T05:43:33.685Z,29.01
2023-04-21T05:46:07.717Z,30.73
2023-04-21T05:48:35.178Z,29.75
2023-04-21T05:51:12.033Z,33.16
2023-04-21T05:53:40.773Z,34.98
2023-04-21T05:56:09.437Z,37.34
2023-04-21T05:58:36.903Z,35.22
2023-04-21T06:01:03.912Z,36.69
2023-04-21T06:03:32.081Z,36.74
2023-04-21T06:06:00.921Z,37.83
2023-04-21T06:08:27.908Z,38.47
2023-04-21T06:10:55.008Z,39.13
2023-04-21T06:13:21.878Z,38.35
2023-04-21T06:15:48.800Z,39.44
2023-04-21T06:18:16.398Z,39.26
2023-04-21T06:20:43.254Z,39.15
2023-04-21T06:23:10.137Z,39.31
2023-04-21T06:25:37.027Z,36.09
2023-04-21T06:28:03.990Z,38.66
2023-04-21T06:30:30.843Z,38.88
2023-04-21T06:32:57.812Z,39.95
2023-04-21T06:35:24.681Z,40.42
2023-04-21T06:37:51.724Z,39.85
2023-04-21T06:40:18.705Z,40.49
2023-04-21T06:42:45.606Z,39.03
2023-04-21T06:45:12.495Z,39.25
2023-04-21T06:47:39.463Z,38.24
2023-04-21T06:50:07.625Z,38.32
2023-04-21T06:52:34.524Z,38.52
2023-04-21T06:55:01.429Z,36.40
2023-04-21T06:57:28.371Z,38.44
2023-04-21T06:59:55.291Z,35.97
2023-04-21T07:02:22.250Z,38.92
2023-04-21T07:04:49.372Z,39.03
2023-04-21T07:07:16.431Z,38.52
2023-04-21T07:09:43.379Z,38.81
2023-04-21T07:12:10.271Z,37.82
2023-04-21T07:14:37.162Z,40.31
2023-04-21T07:17:04.054Z,39.71
2023-04-21T07:19:31.038Z,40.15
2023-04-21T07:21:58.565Z,39.08
2023-04-21T07:24:25.431Z,37.78
2023-04-21T07:26:52.281Z,38.37
2023-04-21T07:29:19.608Z,38.57
2023-04-21T07:31:48.401Z,36.22
2023-04-21T07:34:15.569Z,37.45
2023-04-21T07:36:42.477Z,35.71
2023-04-21T07:39:09.395Z,35.62
2023-04-21T07:41:36.272Z,37.21
2023-04-21T07:44:03.191Z,36.97
2023-04-21T07:46:33.097Z,36.63
2023-04-21T07:49:02.805Z,39.23
2023-04-21T07:51:31.887Z,37.70
2023-04-21T07:53:58.981Z,35.92
2023-04-21T07:56:25.916Z,37.61
2023-04-21T07:58:52.740Z,37.64
2023-04-21T08:01:20.717Z,35.27
2023-04-21T08:03:47.708Z,36.85
2023-04-21T08:06:15.060Z,35.64
2023-04-21T08:08:42.120Z,34.30
2023-04-21T08:11:10.814Z,36.13
2023-04-21T08:13:38.085Z,35.22
2023-04-21T08:16:05.457Z,36.19
2023-04-21T08:18:32.465Z,36.37
2023-04-21T08:20:59.378Z,35.82
2023-04-21T08:23:26.435Z,33.15
2023-04-21T08:25:53.363Z,34.69
2023-04-21T08:28:20.315Z,33.36
2023-04-21T08:30:47.237Z,35.04
2023-04-21T08:33:14.259Z,35.11
2023-04-21T08:35:54.977Z,35.12
2023-04-21T08:38:28.713Z,37.74
2023-04-21T08:40:56.425Z,34.92
2023-04-21T08:43:23.373Z,35.66
2023-04-21T08:45:51.480Z,34.97
2023-04-21T08:48:21.781Z,34.17
2023-04-21T08:50:52.450Z,34.73
2023-04-21T08:53:19.398Z,35.20
2023-04-21T08:55:53.705Z,31.55
2023-04-21T08:58:26.741Z,35.26
2023-04-21T09:00:53.661Z,34.66
2023-04-21T09:03:26.469Z,33.23
2023-04-21T09:06:08.749Z,35.19
2023-04-21T09:08:42.977Z,32.61
2023-04-21T09:11:14.273Z,33.67
2023-04-21T09:13:43.379Z,34.21
2023-04-21T09:16:21.769Z,33.08
2023-04-21T09:18:51.728Z,32.45
2023-04-21T09:21:19.968Z,34.00
2023-04-21T09:23:47.869Z,34.72
2023-04-21T09:26:16.288Z,33.92
2023-04-21T09:28:44.181Z,36.70
2023-04-21T09:31:21.656Z,35.44
2023-04-21T09:36:21.626Z,35.33
2023-04-21T09:39:17.388Z,36.03
2023-04-21T09:41:44.413Z,36.46
2023-04-21T09:44:11.312Z,36.67
2023-04-21T09:46:39.623Z,35.64
2023-04-21T09:49:07.120Z,32.97
2023-04-21T09:56:50.090Z,34.53
2023-04-21T09:59:27.808Z,36.97
2023-04-21T10:01:56.692Z,35.47
2023-04-21T10:04:26.047Z,35.95
2023-04-21T10:06:53.583Z,34.65
2023-04-21T10:09:23.307Z,37.85
2023-04-21T10:11:50.278Z,34.90
2023-04-21T10:14:17.436Z,34.56
2023-04-21T10:16:44.515Z,34.78
2023-04-21T10:19:28.270Z,32.75
2023-04-21T10:21:58.062Z,34.03
2023-04-21T10:24:30.020Z,31.22
2023-04-21T10:27:00.059Z,32.12
2023-04-21T10:29:43.749Z,33.18
2023-04-21T10:32:32.255Z,34.23
2023-04-21T10:34:59.176Z,34.15
2023-04-21T10:37:26.023Z,31.20
2023-04-21T10:39:54.992Z,33.42
2023-04-21T10:42:29.938Z,33.28
2023-04-21T10:44:56.813Z,31.18
2023-04-21T10:47:52.131Z,33.30
2023-04-21T10:50:32.336Z,32.67
2023-04-21T10:53:12.611Z,33.49
2023-04-21T10:55:39.921Z,32.96
2023-04-21T10:58:11.774Z,34.96
2023-04-21T11:00:39.517Z,32.74
2023-04-21T11:03:07.986Z,33.47
2023-04-21T11:05:40.628Z,33.44
2023-04-21T11:08:15.001Z,33.01
2023-04-21T11:10:57.105Z,31.86
2023-04-21T11:13:26.716Z,33.39
2023-04-21T11:16:01.455Z,30.99
2023-04-21T11:18:34.295Z,33.79
2023-04-21T11:21:18.631Z,30.95
2023-04-21T11:23:50.738Z,31.14
2023-04-21T11:26:18.128Z,30.60
2023-04-21T11:28:49.685Z,32.94
2023-04-21T11:31:16.628Z,33.22
2023-04-21T11:33:43.661Z,35.30
2023-04-21T11:36:10.536Z,30.77
2023-04-21T11:38:40.898Z,33.00
2023-04-21T11:41:10.184Z,29.19
2023-04-21T11:43:38.116Z,31.13
2023-04-21T11:46:19.068Z,33.13
2023-04-21T11:48:46.772Z,32.17
2023-04-21T11:51:22.240Z,34.29
2023-04-21T11:53:49.444Z,31.23
2023-04-21T11:56:24.508Z,31.63
2023-04-21T11:58:53.003Z,28.99
2023-04-21T12:01:21.297Z,31.37
2023-04-21T12:03:57.085Z,29.54
2023-04-21T12:06:27.248Z,31.55
2023-04-21T12:09:01.928Z,32.55
2023-04-21T12:11:30.211Z,30.24
2023-04-21T12:14:00.506Z,31.28
2023-04-21T12:16:28.911Z,28.36
2023-04-21T12:18:56.608Z,33.43
2023-04-21T12:21:28.121Z,30.09
2023-04-21T12:23:55.219Z,30.66
2023-04-21T12:26:23.938Z,28.87
2023-04-21T12:28:51.962Z,29.27
2023-04-21T12:31:19.341Z,29.17
2023-04-21T12:33:48.715Z,30.94
2023-04-21T12:36:16.386Z,29.28
2023-04-21T12:38:44.708Z,29.36
2023-04-21T12:41:11.633Z,31.40
2023-04-21T12:43:38.489Z,32.05
2023-04-21T12:46:05.490Z,28.68
2023-04-21T12:48:32.476Z,34.47
2023-04-21T12:50:59.323Z,32.82
2023-04-21T12:53:26.175Z,31.49
2023-04-21T12:56:03.450Z,30.42
2023-04-21T12:58:31.851Z,30.74
2023-04-21T13:00:58.775Z,32.66
2023-04-21T13:03:25.806Z,31.10
2023-04-21T13:05:52.813Z,29.71
2023-04-21T13:08:19.689Z,28.94
2023-04-21T13:10:46.599Z,30.12
2023-04-21T13:13:13.563Z,29.19
2023-04-21T13:15:40.381Z,29.03
2023-04-21T13:18:07.336Z,31.41
2023-04-21T13:20:34.234Z,31.79
2023-04-21T13:23:01.121Z,32.94
2023-04-21T13:25:28.005Z,29.83
2023-04-21T13:27:54.906Z,30.41
2023-04-21T13:30:21.768Z,29.19
2023-04-21T13:32:49.668Z,27.72
2023-04-21T13:35:16.704Z,26.71
2023-04-21T13:37:43.578Z,29.71
2023-04-21T13:40:11.059Z,29.18
2023-04-21T13:42:38.710Z,31.28
2023-04-21T13:45:06.742Z,33.10
2023-04-21T13:47:34.537Z,31.15
2023-04-21T13:50:01.881Z,30.89
2023-04-21T13:52:28.723Z,32.93
2023-04-21T13:54:55.585Z,32.26
2023-04-21T13:57:22.632Z,33.32
2023-04-21T13:59:50.394Z,31.52
2023-04-21T14:02:18.225Z,31.79
2023-04-21T14:04:45.577Z,32.85
2023-04-21T14:07:14.934Z,31.66
2023-04-21T14:09:41.827Z,31.69
2023-04-21T14:12:08.773Z,29.24
2023-04-21T14:14:38.682Z,28.68
2023-04-21T14:17:06.129Z,30.25
2023-04-21T14:19:33.240Z,29.52
2023-04-21T14:22:00.306Z,30.10
2023-04-21T14:24:29.337Z,28.79
2023-04-21T14:26:56.561Z,29.60
2023-04-21T14:29:23.625Z,29.11
2023-04-21T14:31:51.312Z,27.10
2023-04-21T14:34:18.266Z,29.05
2023-04-21T14:36:47.631Z,27.43
2023-04-21T14:39:14.505Z,29.39
2023-04-21T14:41:41.412Z,31.44
2023-04-21T14:44:08.548Z,30.95
2023-04-21T14:46:35.954Z,28.88
2023-04-21T14:49:03.398Z,29.52
2023-04-21T14:51:31.931Z,28.52
2023-04-21T14:53:58.834Z,29.07
2023-04-21T14:56:25.953Z,28.54
2023-04-21T14:58:53.052Z,28.76
2023-04-21T15:01:20.038Z,29.97
2023-04-21T15:03:47.139Z,30.19
2023-04-21T15:06:14.297Z,30.85
2023-04-21T15:08:41.268Z,29.20
2023-04-21T15:11:08.262Z,30.40
2023-04-21T15:13:35.218Z,29.05
2023-04-21T15:16:02.106Z,29.39
2023-04-21T15:18:29.003Z,29.58
2023-04-21T15:20:55.886Z,29.10
2023-04-21T15:23:22.763Z,29.20
2023-04-21T15:25:49.650Z,28.50
2023-04-21T15:28:16.532Z,28.55
2023-04-21T15:30:43.972Z,27.74
2023-04-21T15:33:11.847Z,27.62
2023-04-21T15:35:38.854Z,26.88
2023-04-21T15:38:06.592Z,30.02
2023-04-21T15:40:33.537Z,29.99
2023-04-21T15:43:00.404Z,30.40
2023-04-21T15:45:27.286Z,32.85
2023-04-21T15:47:54.200Z,31.65
2023-04-21T15:50:21.219Z,31.69
2023-04-21T15:52:48.125Z,31.19
2023-04-21T15:55:15.434Z,31.36
2023-04-21T15:57:42.294Z,31.42
2023-04-21T16:00:12.946Z,32.98
2023-04-21T16:02:40.040Z,30.41
2023-04-21T16:05:07.393Z,31.78
2023-04-21T16:07:34.715Z,31.70
2023-04-21T16:10:01.605Z,29.76
2023-04-21T16:12:28.576Z,32.26
2023-04-21T16:15:01.598Z,30.98
2023-04-21T16:17:34.347Z,31.63
2023-04-21T16:20:01.221Z,31.54
2023-04-21T16:22:28.280Z,28.43
2023-04-21T16:24:55.261Z,30.07
2023-04-21T16:27:22.253Z,31.42
2023-04-21T16:29:50.461Z,33.58
2023-04-21T16:32:17.441Z,33.46
2023-04-21T16:34:44.398Z,34.69
2023-04-21T16:37:11.389Z,35.57
2023-04-21T16:39:38.497Z,33.86
2023-04-21T16:42:05.476Z,34.47
2023-04-21T16:44:32.400Z,35.09
2023-04-21T16:46:59.376Z,35.27
2023-04-21T16:49:26.323Z,35.38
2023-04-21T16:51:53.155Z,35.43
2023-04-21T16:54:20.039Z,36.67
2023-04-21T16:56:46.961Z,36.97
2023-04-21T16:59:14.209Z,37.72
2023-04-21T17:01:41.292Z,36.67
2023-04-21T17:04:08.359Z,37.35
2023-04-21T17:06:35.464Z,37.86
2023-04-21T17:09:02.347Z,37.66
2023-04-21T17:11:30.127Z,37.45
2023-04-21T17:13:56.978Z,37.46
2023-04-21T17:16:23.935Z,37.05
2023-04-21T17:18:50.960Z,36.78
2023-04-21T17:21:17.795Z,36.92
2023-04-21T17:23:44.690Z,37.17
2023-04-21T17:26:13.126Z,37.93
2023-04-21T17:28:40.379Z,37.24
2023-04-21T17:31:14.549Z,37.13
2023-04-21T17:33:43.571Z,37.58
2023-04-21T17:36:10.566Z,37.98
2023-04-21T17:38:37.691Z,37.71
2023-04-21T17:41:06.938Z,38.99
2023-04-21T17:43:33.901Z,38.81
2023-04-21T17:46:00.861Z,37.49
2023-04-21T17:48:27.796Z,37.92
2023-04-21T17:50:54.652Z,38.18
2023-04-21T17:53:21.523Z,37.49
2023-04-21T17:55:48.355Z,37.53
2023-04-21T17:58:15.254Z,37.74
2023-04-21T18:00:42.146Z,38.40
2023-04-21T18:03:09.138Z,37.86
2023-04-21T18:05:36.389Z,38.30
2023-04-21T18:08:03.290Z,39.04
2023-04-21T18:10:30.239Z,37.84
2023-04-21T18:12:57.620Z,38.44
2023-04-21T18:15:24.710Z,38.64
2023-04-21T18:17:53.355Z,37.52
2023-04-21T18:20:20.472Z,37.27
2023-04-21T18:22:47.611Z,37.01
2023-04-21T18:25:14.883Z,35.83
2023-04-21T18:27:41.970Z,35.74
2023-04-21T18:30:09.862Z,35.44
2023-04-21T18:32:37.203Z,36.56
2023-04-21T18:35:05.884Z,36.34
2023-04-21T18:37:34.933Z,36.42
2023-04-21T18:40:01.841Z,38.54
2023-04-21T18:42:28.760Z,39.72
2023-04-21T18:44:57.735Z,39.34
2023-04-21T18:47:25.134Z,39.27
2023-04-21T18:49:54.365Z,39.07
2023-04-21T18:52:21.256Z,39.25
2023-04-21T18:54:48.099Z,39.77
2023-04-21T18:57:14.961Z,39.14
2023-04-21T18:59:41.798Z,39.62
2023-04-21T19:02:13.207Z,39.32
2023-04-21T19:04:40.585Z,37.83
2023-04-21T19:07:10.154Z,38.69
2023-04-21T19:09:37.774Z,38.02
2023-04-21T19:12:05.022Z,37.85
2023-04-21T19:14:42.399Z,38.72
2023-04-21T19:17:13.437Z,37.42
2023-04-21T19:19:40.693Z,37.22
2023-04-21T19:22:07.680Z,38.88
2023-04-21T19:24:34.663Z,39.58
2023-04-21T19:27:06.278Z,39.58
2023-04-21T19:29:33.320Z,39.90
2023-04-21T19:32:00.316Z,41.26
2023-04-21T19:34:27.254Z,40.38
2023-04-21T19:36:54.276Z,41.49
2023-04-21T19:39:21.210Z,42.70
2023-04-21T19:41:48.084Z,42.90
2023-04-21T19:44:14.950Z,43.14
2023-04-21T19:46:43.257Z,43.06
2023-04-21T19:49:13.177Z,43.16
2023-04-21T19:51:41.393Z,43.18
2023-04-21T19:54:12.025Z,43.58
2023-04-21T19:56:40.034Z,44.39
2023-04-21T19:59:07.104Z,44.81
2023-04-21T20:01:34.809Z,44.08
2023-04-21T20:04:02.395Z,43.75
2023-04-21T20:06:29.440Z,42.93
2023-04-21T20:08:56.532Z,43.99
2023-04-21T20:11:23.496Z,45.12
2023-04-21T20:13:50.673Z,44.32
2023-04-21T20:16:18.376Z,44.05
2023-04-21T20:18:45.261Z,45.22
2023-04-21T20:21:12.634Z,44.87
2023-04-21T20:23:39.465Z,44.15
2023-04-21T20:26:06.359Z,43.92
2023-04-21T20:28:33.366Z,44.30
2023-04-21T20:31:00.338Z,43.51
2023-04-21T20:33:28.250Z,43.09
2023-04-21T20:35:55.588Z,42.71
2023-04-21T20:38:24.132Z,40.88
2023-04-21T20:40:52.501Z,40.70
2023-04-21T20:43:19.564Z,41.45
2023-04-21T20:45:47.545Z,41.36
2023-04-21T20:48:14.462Z,41.83
2023-04-21T20:50:43.332Z,41.72
2023-04-21T20:53:11.638Z,41.25
2023-04-21T20:55:38.778Z,40.53
2023-04-21T20:58:06.157Z,41.38
2023-04-21T21:00:34.754Z,43.48
2023-04-21T21:03:02.369Z,45.10
2023-04-21T21:05:30.505Z,46.11
2023-04-21T21:07:57.495Z,45.93
2023-04-21T21:10:24.396Z,47.35
2023-04-21T21:12:51.311Z,46.39
2023-04-21T21:15:18.209Z,46.95
2023-04-21T21:17:45.168Z,47.36
2023-04-21T21:20:12.152Z,48.55
2023-04-21T21:22:39.043Z,48.00
2023-04-21T21:25:06.254Z,49.05
2023-04-21T21:27:33.144Z,50.15
2023-04-21T21:30:00.014Z,49.66
2023-04-21T21:32:26.882Z,49.26
2023-04-21T21:34:53.797Z,48.94
2023-04-21T21:37:21.375Z,48.38
2023-04-21T21:39:48.417Z,50.66
2023-04-21T21:42:15.493Z,50.02
2023-04-21T21:44:42.440Z,50.76
2023-04-21T21:47:09.400Z,50.70
2023-04-21T21:49:38.514Z,50.64
2023-04-21T21:52:06.090Z,48.56
2023-04-21T21:54:32.955Z,48.35
2023-04-21T21:56:59.840Z,47.80
2023-04-21T21:59:26.760Z,48.64
2023-04-21T22:01:53.867Z,48.48
2023-04-21T22:04:21.060Z,47.42
2023-04-21T22:06:48.415Z,48.25
2023-04-21T22:09:15.550Z,47.62
2023-04-21T22:11:42.501Z,47.68
2023-04-21T22:14:21.692Z,46.29
2023-04-21T22:16:50.763Z,45.83
2023-04-21T22:19:20.429Z,47.08
2023-04-21T22:21:47.436Z,46.40
2023-04-21T22:24:14.334Z,46.18
2023-04-21T22:26:41.237Z,48.26
2023-04-21T22:29:08.102Z,48.76
2023-04-21T22:31:35.130Z,49.42
2023-04-21T22:34:02.090Z,47.91
2023-04-21T22:36:28.940Z,47.88
2023-04-21T22:38:55.793Z,47.88
2023-04-21T22:41:22.662Z,48.42
2023-04-21T22:43:49.543Z,51.16
2023-04-21T22:46:16.471Z,51.45
2023-04-21T22:48:46.753Z,51.81
2023-04-21T22:51:20.985Z,52.21
2023-04-21T22:53:47.890Z,50.67
2023-04-21T22:56:14.810Z,52.35
2023-04-21T22:58:41.849Z,51.62
2023-04-21T23:01:08.960Z,52.49
2023-04-21T23:03:36.060Z,50.92
2023-04-21T23:06:03.083Z,50.30
2023-04-21T23:08:29.919Z,48.85
2023-04-21T23:10:57.278Z,48.39
2023-04-21T23:13:24.137Z,48.29
2023-04-21T23:15:51.037Z,47.60
2023-04-21T23:18:17.929Z,47.35
2023-04-21T23:20:44.878Z,47.57
2023-04-21T23:23:11.891Z,48.49
2023-04-21T23:25:38.772Z,48.04
2023-04-21T23:28:05.770Z,49.06
2023-04-21T23:30:32.692Z,49.58
2023-04-21T23:32:59.669Z,50.05
2023-04-21T23:35:26.946Z,49.87
2023-04-21T23:37:53.805Z,49.07
2023-04-21T23:40:20.953Z,48.75
2023-04-21T23:42:48.278Z,48.66
2023-04-21T23:45:15.501Z,47.65
2023-04-21T23:47:42.365Z,47.85
2023-04-21T23:50:09.754Z,49.64
2023-04-21T23:52:36.626Z,50.18
2023-04-21T23:55:03.723Z,49.87
2023-04-21T23:57:30.564Z,50.82
2023-04-21T23:59:57.466Z,51.51
